createdAt,value
2023-02-03T00:00:00.566Z,81.3
2023-02-03T00:10:00.535Z,80.6
2023-02-03T00:20:00.567Z,79.7
2023-02-03T00:30:00.542Z,75.3
2023-02-03T00:40:00.624Z,74.8
2023-02-03T00:50:00.683Z,75.8
2023-02-03T01:00:00.859Z,75.8
2023-02-03T01:10:00.836Z,72.8
2023-02-03T01:20:00.704Z,73.0
2023-02-03T01:30:00.533Z,72.4
2023-02-03T01:40:00.589Z,72.6
2023-02-03T01:50:00.585Z,72.0
2023-02-03T02:00:00.564Z,70.2
2023-02-03T02:10:00.544Z,70.3
2023-02-03T02:20:00.559Z,70.0
2023-02-03T02:30:00.564Z,69.9
2023-02-03T02:40:00.583Z,69.1
2023-02-03T02:50:00.564Z,70.8
2023-02-03T03:00:00.528Z,70.2
2023-02-03T03:10:00.719Z,70.7
2023-02-03T03:20:00.843Z,70.2
2023-02-03T03:30:00.809Z,68.9
2023-02-03T03:40:00.628Z,70.6
2023-02-03T03:50:00.560Z,72.3
2023-02-03T04:00:00.591Z,72.5
2023-02-03T04:10:00.541Z,68.4
2023-02-03T04:20:00.642Z,64.8
2023-02-03T04:30:00.551Z,58.8
2023-02-03T04:40:00.856Z,57.4
2023-02-03T04:50:00.572Z,56.3
2023-02-03T05:00:00.593Z,56.0
2023-02-03T05:10:00.536Z,65.6
2023-02-03T05:20:00.541Z,69.5
2023-02-03T05:30:00.646Z,70.4
2023-02-03T05:40:00.772Z,68.3
2023-02-03T05:50:00.787Z,70.5
2023-02-03T06:00:00.854Z,68.3
2023-02-03T06:10:00.651Z,64.7
2023-02-03T06:20:00.532Z,61.7
2023-02-03T06:30:00.527Z,62.7
2023-02-03T06:40:00.540Z,66.9
2023-02-03T06:50:00.578Z,71.4
2023-02-03T07:00:00.611Z,72.0
2023-02-03T07:10:00.560Z,73.4
2023-02-03T07:20:00.765Z,75.1
2023-02-03T07:30:00.962Z,74.7
2023-02-03T07:40:00.851Z,71.8
2023-02-03T07:50:00.724Z,71.7
2023-02-03T08:00:00.586Z,71.5
2023-02-03T08:10:00.530Z,70.2
2023-02-03T08:20:00.572Z,68.1
2023-02-03T08:30:00.607Z,65.8
2023-02-03T08:40:00.685Z,66.1
2023-02-03T08:50:00.542Z,71.2
2023-02-03T09:00:00.601Z,77.4
2023-02-03T09:10:00.536Z,82.3
2023-02-03T09:20:00.627Z,84.7
2023-02-03T09:30:00.558Z,85.9
2023-02-03T09:40:00.539Z,86.6
2023-02-03T09:50:00.562Z,85.7
2023-02-03T10:00:00.595Z,86.4
2023-02-03T10:10:00.538Z,85.8
2023-02-03T10:20:00.631Z,85.5
2023-02-03T10:30:00.781Z,85.9
2023-02-03T10:40:01.157Z,86.7
2023-02-03T10:50:00.721Z,87.5
2023-02-03T11:00:00.584Z,88.0
2023-02-03T11:10:00.627Z,88.1
2023-02-03T11:20:00.547Z,88.3
2023-02-03T11:30:00.536Z,88.7
2023-02-03T11:40:00.576Z,89.0
2023-02-03T11:50:00.542Z,89.6
2023-02-03T12:00:00.568Z,89.6
2023-02-03T12:10:00.564Z,89.7
2023-02-03T12:20:00.522Z,90.0
2023-02-03T12:30:00.537Z,90.1
2023-02-03T12:40:00.539Z,90.0
2023-02-03T12:50:00.727Z,90.1
2023-02-03T13:00:01.354Z,90.4
2023-02-03T13:10:00.918Z,90.2
2023-02-03T13:20:00.579Z,90.7
2023-02-03T13:30:00.565Z,91.4
2023-02-03T13:40:00.589Z,91.6
2023-02-03T13:50:00.555Z,92.3
2023-02-03T14:00:01.116Z,92.1
2023-02-03T14:10:00.755Z,92.3
2023-02-03T14:20:00.526Z,92.8
2023-02-03T14:30:00.540Z,93.1
2023-02-03T14:40:00.564Z,93.5
2023-02-03T14:50:00.937Z,93.2
2023-02-03T15:00:00.556Z,93.9
2023-02-03T15:10:00.570Z,94.3
2023-02-03T15:20:00.581Z,94.5
2023-02-03T15:30:00.572Z,94.8
2023-02-03T15:50:00.802Z,94.8
2023-02-03T16:00:00.581Z,94.3
2023-02-03T16:10:00.561Z,93.6
2023-02-03T16:20:00.663Z,93.8
2023-02-03T16:30:00.547Z,93.8
2023-02-03T16:40:00.628Z,93.6
2023-02-03T16:50:00.551Z,94.5
2023-02-03T17:00:00.599Z,94.6
2023-02-03T17:10:00.578Z,94.7
2023-02-03T17:20:00.675Z,94.6
2023-02-03T17:30:00.607Z,95.3
2023-02-03T18:00:00.580Z,95.2
2023-02-03T18:10:00.545Z,94.4
2023-02-03T18:20:00.747Z,93.6
2023-02-03T18:30:00.529Z,93.9
2023-02-03T18:40:00.552Z,93.2
2023-02-03T18:50:00.545Z,92.7
2023-02-03T19:00:00.598Z,90.8
2023-02-03T19:10:00.614Z,93.1
2023-02-03T19:20:00.541Z,93.2
2023-02-03T19:30:00.750Z,93.0
2023-02-03T19:40:00.614Z,92.0
2023-02-03T19:50:00.552Z,91.4
2023-02-03T20:00:00.573Z,90.7
2023-02-03T20:10:00.810Z,90.0
2023-02-03T20:20:00.854Z,90.7
2023-02-03T20:30:01.008Z,91.7
2023-02-03T20:40:00.765Z,91.0
2023-02-03T20:50:00.878Z,89.8
2023-02-03T21:00:00.546Z,88.9
2023-02-03T21:10:00.602Z,87.5
2023-02-03T21:20:00.553Z,86.6
2023-02-03T21:30:00.622Z,86.0
2023-02-03T21:40:00.576Z,86.1
2023-02-03T21:50:00.550Z,85.2
2023-02-03T22:00:00.565Z,84.8
2023-02-03T22:10:00.582Z,85.5
2023-02-03T22:20:00.576Z,86.1
2023-02-03T22:30:00.586Z,86.5
2023-02-03T22:40:00.576Z,85.8
2023-02-03T22:50:00.611Z,85.7
2023-02-03T23:00:00.766Z,85.8
2023-02-03T23:10:00.749Z,85.9
2023-02-03T23:20:00.908Z,85.6
2023-02-03T23:30:00.893Z,86.3
2023-02-03T23:50:00.619Z,86.1
